Trefriw, United Kingdom
Current Conditions -  °F | °C
As of 8:20 AM on Thursday 27 Nov 2014 (Local Time) from EGOV Reporting Station
Light Fog Light Fog  
Wind Chill:   Ceiling: Unl
Heat Index:   Visibility: 6mi
Dew Point:   Wind: 5mph
Humidity: 93%   Direction: 100°E
Pressure: 29.59"   Gusts: NA
Location:  53.13°N, 3.81°W
Report Text: EGOV 270820Z 10004KT 9999 0900SE BCFG FEW010 04/03 Q1002 AMB BECMG 9999 NSW BLU
Loading
Personal Weather Stations






























Interactive Weather Map New forecast layout! Learn more

10-Day Weather Forecast

Advertisements
Track Severe Weather on mobile